Time;durP1;ratioP1;P1;durP2;ratioP2;P2;SDS_P1;SDS_P2;PMS_P1;PMS_P2;Temp;Humidity;BMP_temperature;BMP_pressure;BME280_temperature;BME280_humidity;BME280_pressure;Samples;Min_cycle;Max_cycle;Signal;HPM_P1;HPM_P2
2024/02/27 00:01:30;;;;;;;22.83;15.70;;;5.40;99.90;;;;;;5042342;28;20023;-33
2024/02/27 00:03:56;;;;;;;21.83;15.98;;;5.30;99.90;;;;;;5043544;28;20017;-34
2024/02/27 00:06:21;;;;;;;19.40;14.07;;;5.30;99.90;;;;;;5042420;28;20055;-36
2024/02/27 00:08:47;;;;;;;19.00;13.90;;;5.30;99.90;;;;;;5042654;28;20514;-37
2024/02/27 00:11:13;;;;;;;19.40;14.07;;;5.30;99.90;;;;;;5042772;28;20028;-35
2024/02/27 00:13:39;;;;;;;21.77;15.40;;;5.20;99.90;;;;;;5042544;28;20084;-31
2024/02/27 00:16:05;;;;;;;20.92;15.45;;;5.30;99.90;;;;;;5041529;28;20120;-32
2024/02/27 00:18:30;;;;;;;22.20;14.32;;;5.30;99.90;;;;;;5042074;28;20103;-33
2024/02/27 00:20:56;;;;;;;20.30;15.32;;;5.30;99.90;;;;;;5041908;28;20037;-34
2024/02/27 00:23:22;;;;;;;20.38;14.25;;;5.30;99.90;;;;;;5041275;28;20048;-30
2024/02/27 00:25:47;;;;;;;20.50;14.30;;;5.30;99.90;;;;;;5042541;28;20474;-36
2024/02/27 00:28:13;;;;;;;19.02;13.77;;;5.30;99.90;;;;;;5041973;28;20021;-34
2024/02/27 00:30:38;;;;;;;19.45;14.38;;;5.30;99.90;;;;;;5040234;28;20817;-33
2024/02/27 00:33:04;;;;;;;17.67;13.70;;;5.30;99.90;;;;;;5042219;28;20032;-38
2024/02/27 00:35:33;;;;;;;18.25;13.63;;;5.20;99.90;;;;;;5041537;28;20056;-37
2024/02/27 00:37:59;;;;;;;20.33;13.27;;;5.20;99.90;;;;;;5041312;28;20450;-31
2024/02/27 00:40:25;;;;;;;19.05;13.85;;;5.20;99.90;;;;;;5042098;28;20497;-35
2024/02/27 00:42:50;;;;;;;19.60;14.52;;;5.20;99.90;;;;;;5041975;28;20155;-37
2024/02/27 00:45:16;;;;;;;20.90;15.50;;;5.20;99.90;;;;;;5040202;28;20025;-34
2024/02/27 00:47:42;;;;;;;20.83;15.30;;;5.20;99.90;;;;;;5041674;28;20028;-35
2024/02/27 00:50:08;;;;;;;21.30;15.55;;;5.10;99.90;;;;;;5041278;28;20032;-36
2024/02/27 00:52:36;;;;;;;21.20;15.27;;;5.10;99.90;;;;;;5040701;28;20024;-33
2024/02/27 00:55:02;;;;;;;19.65;13.52;;;5.10;99.90;;;;;;5042214;28;20246;-33
2024/02/27 00:57:27;;;;;;;20.27;13.90;;;5.10;99.90;;;;;;5040411;28;20807;-36
2024/02/27 00:59:53;;;;;;;21.65;15.13;;;5.10;99.90;;;;;;5041777;28;20071;-37
2024/02/27 01:02:18;;;;;;;20.38;14.43;;;5.10;99.90;;;;;;5041399;28;20155;-37
2024/02/27 01:04:44;;;;;;;19.77;14.20;;;5.20;99.90;;;;;;5041042;28;20021;-34
2024/02/27 01:07:10;;;;;;;18.25;13.40;;;5.10;99.90;;;;;;5041545;28;20020;-35
2024/02/27 01:09:36;;;;;;;22.80;15.48;;;5.20;99.90;;;;;;5041761;28;20388;-35
2024/02/27 01:12:01;;;;;;;21.23;15.20;;;5.20;99.90;;;;;;5041107;28;20025;-34
2024/02/27 01:14:27;;;;;;;21.33;15.25;;;5.20;99.90;;;;;;5040964;28;20529;-36
2024/02/27 01:16:52;;;;;;;20.08;14.95;;;5.20;99.90;;;;;;5041028;28;20052;-36
2024/02/27 01:19:20;;;;;;;18.38;14.02;;;5.20;99.90;;;;;;5040321;28;20435;-35
2024/02/27 01:21:45;;;;;;;21.35;14.82;;;5.20;99.90;;;;;;5041748;28;20037;-33
2024/02/27 01:24:11;;;;;;;22.33;15.93;;;5.20;99.90;;;;;;5040726;28;20379;-33
2024/02/27 01:26:37;;;;;;;23.63;16.02;;;5.30;99.90;;;;;;5040611;28;20029;-34
2024/02/27 01:29:02;;;;;;;21.33;15.50;;;5.30;99.90;;;;;;5040582;28;20028;-32
2024/02/27 01:31:28;;;;;;;24.88;16.88;;;5.30;99.90;;;;;;5040320;28;20040;-34
2024/02/27 01:33:53;;;;;;;23.05;14.82;;;5.30;99.90;;;;;;5040831;28;20207;-36
2024/02/27 01:36:19;;;;;;;20.50;15.18;;;5.30;99.90;;;;;;5040089;28;20195;-37
2024/02/27 01:38:44;;;;;;;20.73;15.07;;;5.30;99.90;;;;;;5040790;28;20056;-36
2024/02/27 01:41:10;;;;;;;21.67;15.38;;;5.40;99.90;;;;;;5040288;28;20927;-34
2024/02/27 01:43:35;;;;;;;21.50;14.20;;;5.30;99.90;;;;;;5040559;28;20343;-32
2024/02/27 01:46:16;;;;;;;21.52;14.27;;;5.30;99.90;;;;;;5041178;28;20028;-35
2024/02/27 01:48:43;;;;;;;20.02;14.57;;;5.30;99.90;;;;;;5040039;28;20075;-36
2024/02/27 01:51:10;;;;;;;19.33;13.85;;;5.30;99.90;;;;;;5041361;28;20071;-36
2024/02/27 01:53:38;;;;;;;21.73;15.45;;;5.20;99.90;;;;;;5039906;28;20029;-35
2024/02/27 01:56:04;;;;;;;22.48;15.95;;;5.20;99.90;;;;;;5039181;28;20025;-36
2024/02/27 01:58:31;;;;;;;22.60;15.90;;;5.20;99.90;;;;;;5040219;28;20025;-35
2024/02/27 02:00:56;;;;;;;22.50;15.15;;;5.20;99.90;;;;;;5039722;28;20017;-35
2024/02/27 02:03:23;;;;;;;22.88;15.88;;;5.10;99.90;;;;;;5040050;28;20040;-32
2024/02/27 02:05:49;;;;;;;20.95;14.82;;;5.10;99.90;;;;;;5040542;28;20501;-34
2024/02/27 02:08:15;;;;;;;24.70;17.00;;;5.10;99.90;;;;;;5039369;28;20853;-36
2024/02/27 02:10:41;;;;;;;23.60;16.45;;;5.00;99.90;;;;;;5040390;28;20067;-35
2024/02/27 02:13:06;;;;;;;22.30;16.02;;;5.00;99.90;;;;;;5040016;28;20052;-37
2024/02/27 02:15:32;;;;;;;22.60;15.35;;;5.00;99.90;;;;;;5039490;28;20032;-31
2024/02/27 02:17:58;;;;;;;22.38;15.02;;;4.90;99.90;;;;;;5040864;28;20112;-34
2024/02/27 02:20:23;;;;;;;22.02;15.07;;;4.80;99.90;;;;;;5039253;28;20514;-36
2024/02/27 02:22:49;;;;;;;23.45;15.80;;;4.80;99.90;;;;;;5039892;28;20032;-36
2024/02/27 02:25:17;;;;;;;20.83;14.45;;;4.80;99.90;;;;;;5039626;28;20060;-36
2024/02/27 02:27:46;;;;;;;20.15;13.23;;;4.70;99.90;;;;;;5040069;28;20218;-36
2024/02/27 02:30:14;;;;;;;24.63;15.25;;;4.70;99.90;;;;;;5039237;28;20044;-36
2024/02/27 02:32:49;;;;;;;23.02;15.57;;;4.60;99.90;;;;;;5040003;28;20113;-36
2024/02/27 02:35:15;;;;;;;22.65;14.98;;;4.60;99.90;;;;;;5039753;28;20103;-33
2024/02/27 02:37:42;;;;;;;25.27;16.02;;;4.60;99.90;;;;;;5039348;28;20136;-35
2024/02/27 02:40:08;;;;;;;23.33;16.63;;;4.50;99.90;;;;;;5039627;28;20082;-32
2024/02/27 02:42:34;;;;;;;25.55;16.35;;;4.50;99.90;;;;;;5039828;28;20028;-37
2024/02/27 02:45:00;;;;;;;27.00;16.13;;;4.40;99.90;;;;;;5039574;28;20021;-36
2024/02/27 02:47:25;;;;;;;26.48;16.90;;;4.40;99.90;;;;;;5039864;28;20376;-33
2024/02/27 02:49:51;;;;;;;24.60;16.05;;;4.40;99.90;;;;;;5039333;28;20035;-35
2024/02/27 02:52:16;;;;;;;24.25;15.52;;;4.40;99.90;;;;;;5039913;28;20044;-32
2024/02/27 02:54:42;;;;;;;21.33;14.80;;;4.40;99.90;;;;;;5039813;28;20124;-35
2024/02/27 02:57:08;;;;;;;20.52;13.35;;;4.30;99.90;;;;;;5039022;28;20102;-32
2024/02/27 02:59:34;;;;;;;20.63;13.57;;;4.30;99.90;;;;;;5039914;28;20685;-37
2024/02/27 03:02:00;;;;;;;20.98;13.52;;;4.30;99.90;;;;;;5040249;28;20017;-34
2024/02/27 03:04:25;;;;;;;20.13;13.30;;;4.30;99.90;;;;;;5039069;28;20644;-34
2024/02/27 03:06:51;;;;;;;23.55;14.30;;;4.30;99.90;;;;;;5039200;28;20025;-37
2024/02/27 03:09:18;;;;;;;25.00;15.18;;;4.30;99.90;;;;;;5037409;28;20036;-36
2024/02/27 03:11:43;;;;;;;24.17;15.05;;;4.30;99.90;;;;;;5038827;28;20025;-36
2024/02/27 03:14:09;;;;;;;22.00;14.18;;;4.30;99.90;;;;;;5039328;28;20067;-37
2024/02/27 03:16:34;;;;;;;20.80;14.65;;;4.30;99.90;;;;;;5038842;28;20032;-37
2024/02/27 03:19:01;;;;;;;25.65;15.85;;;4.20;99.90;;;;;;5038654;28;20082;-34
2024/02/27 03:21:27;;;;;;;23.85;14.98;;;4.20;99.90;;;;;;5038555;28;20029;-38
2024/02/27 03:23:52;;;;;;;23.63;16.02;;;4.20;99.90;;;;;;5039736;28;20862;-36
2024/02/27 03:26:18;;;;;;;22.75;15.30;;;4.20;99.90;;;;;;5038665;28;20021;-34
2024/02/27 03:28:43;;;;;;;26.38;16.10;;;4.20;99.90;;;;;;5039670;28;20029;-31
2024/02/27 03:31:10;;;;;;;25.42;15.95;;;4.10;99.90;;;;;;5039047;28;20593;-32
2024/02/27 03:33:35;;;;;;;20.58;13.15;;;4.10;99.90;;;;;;5038889;28;20035;-33
2024/02/27 03:36:04;;;;;;;24.02;15.20;;;4.10;99.90;;;;;;5039440;28;20029;-32
2024/02/27 03:38:31;;;;;;;22.50;15.25;;;4.00;99.90;;;;;;5039305;28;20037;-32
2024/02/27 03:40:57;;;;;;;21.17;14.07;;;4.00;99.90;;;;;;5038838;28;20785;-35
2024/02/27 03:43:23;;;;;;;22.30;14.90;;;4.00;99.90;;;;;;5038579;28;20075;-36
2024/02/27 03:45:48;;;;;;;24.05;14.63;;;4.00;99.90;;;;;;5039066;28;20115;-33
2024/02/27 03:48:14;;;;;;;23.08;16.05;;;4.00;99.90;;;;;;5038167;28;20106;-36
2024/02/27 03:50:39;;;;;;;26.05;14.80;;;4.00;99.90;;;;;;5039233;28;20048;-37
2024/02/27 03:53:05;;;;;;;25.02;15.57;;;3.90;99.90;;;;;;5038376;28;20037;-37
2024/02/27 03:55:30;;;;;;;22.45;14.68;;;3.90;99.90;;;;;;5039195;28;20028;-34
2024/02/27 03:57:56;;;;;;;22.38;15.05;;;3.90;99.90;;;;;;5038854;28;20037;-34
2024/02/27 04:00:22;;;;;;;23.90;14.45;;;3.90;99.90;;;;;;5038835;28;20033;-36
2024/02/27 04:02:47;;;;;;;20.05;13.25;;;3.90;99.90;;;;;;5039256;28;20021;-34
2024/02/27 04:05:13;;;;;;;20.63;13.15;;;3.90;99.90;;;;;;5038985;28;20017;-34
2024/02/27 04:07:39;;;;;;;25.30;15.85;;;3.80;99.90;;;;;;5038391;28;20033;-35
2024/02/27 04:10:05;;;;;;;19.35;12.80;;;3.80;99.90;;;;;;5038405;28;20044;-35
2024/02/27 04:12:30;;;;;;;24.98;15.88;;;3.80;99.90;;;;;;5038370;28;20072;-36
2024/02/27 04:14:56;;;;;;;25.70;16.13;;;3.80;99.90;;;;;;5038756;28;20128;-34
2024/02/27 04:17:22;;;;;;;24.10;15.35;;;3.80;99.90;;;;;;5038214;28;20439;-36
2024/02/27 04:19:47;;;;;;;23.52;14.35;;;3.80;99.90;;;;;;5040231;28;20794;-35
2024/02/27 04:22:13;;;;;;;23.10;14.50;;;3.80;99.90;;;;;;5041577;28;20029;-32
2024/02/27 04:24:39;;;;;;;22.50;14.40;;;3.80;99.90;;;;;;5042060;28;20640;-37
2024/02/27 04:27:05;;;;;;;23.50;14.57;;;3.80;99.90;;;;;;5042672;28;20029;-34
2024/02/27 04:29:30;;;;;;;23.10;15.02;;;3.80;99.90;;;;;;5041541;28;20090;-36
2024/02/27 04:31:56;;;;;;;23.38;15.40;;;3.80;99.90;;;;;;5042704;28;20029;-37
2024/02/27 04:34:22;;;;;;;29.60;18.40;;;3.80;99.90;;;;;;5042438;28;20406;-35
2024/02/27 04:36:47;;;;;;;23.90;15.95;;;3.80;99.90;;;;;;5041794;28;20648;-36
2024/02/27 04:39:16;;;;;;;27.67;17.08;;;3.80;99.90;;;;;;5042423;28;20060;-34
2024/02/27 04:41:42;;;;;;;24.23;15.43;;;3.80;99.90;;;;;;5042423;28;20056;-34
2024/02/27 04:44:10;;;;;;;29.52;17.35;;;3.80;99.90;;;;;;5041151;28;20117;-32
2024/02/27 04:46:36;;;;;;;29.00;18.17;;;3.80;99.90;;;;;;5042144;28;20029;-32
2024/02/27 04:49:01;;;;;;;29.63;18.00;;;3.80;99.90;;;;;;5042170;28;20025;-33
2024/02/27 04:51:27;;;;;;;28.52;17.60;;;3.80;99.90;;;;;;5041031;28;20041;-36
2024/02/27 04:53:52;;;;;;;25.65;16.17;;;3.80;99.90;;;;;;5042332;28;20348;-35
2024/02/27 04:56:18;;;;;;;26.23;17.05;;;3.80;99.90;;;;;;5042107;28;20029;-34
2024/02/27 04:58:43;;;;;;;28.38;17.50;;;3.80;99.90;;;;;;5041312;28;20021;-33
2024/02/27 05:01:11;;;;;;;29.08;18.10;;;3.80;99.90;;;;;;5042124;28;20039;-36
2024/02/27 05:03:37;;;;;;;30.90;19.15;;;3.80;99.90;;;;;;5040853;28;20039;-32
2024/02/27 05:06:02;;;;;;;30.17;18.25;;;3.80;99.90;;;;;;5042000;28;20028;-34
2024/02/27 05:08:28;;;;;;;29.23;17.50;;;3.70;99.90;;;;;;5041557;28;20043;-31
2024/02/27 05:10:53;;;;;;;30.40;18.00;;;3.70;99.90;;;;;;5040708;28;20044;-33
2024/02/27 05:13:19;;;;;;;30.58;17.80;;;3.70;99.90;;;;;;5040496;28;20147;-36
2024/02/27 05:15:45;;;;;;;29.90;17.13;;;3.70;99.90;;;;;;5041367;28;20025;-35
2024/02/27 05:18:10;;;;;;;28.50;17.40;;;3.70;99.90;;;;;;5040466;28;20036;-32
2024/02/27 05:20:36;;;;;;;26.92;17.10;;;3.70;99.90;;;;;;5041058;28;20036;-33
2024/02/27 05:23:03;;;;;;;28.48;17.17;;;3.70;99.90;;;;;;5041195;28;20052;-35
2024/02/27 05:25:28;;;;;;;24.33;16.13;;;3.70;99.90;;;;;;5040201;28;20029;-34
2024/02/27 05:27:54;;;;;;;24.83;16.45;;;3.70;99.90;;;;;;5041952;28;20075;-34
2024/02/27 05:30:20;;;;;;;25.67;16.20;;;3.70;99.90;;;;;;5040908;28;20271;-36
2024/02/27 05:32:46;;;;;;;25.55;16.58;;;3.70;99.90;;;;;;5041455;28;20025;-34
2024/02/27 05:35:11;;;;;;;27.63;17.08;;;3.70;99.90;;;;;;5041022;28;20031;-34
2024/02/27 05:37:37;;;;;;;29.65;17.95;;;3.70;99.90;;;;;;5041013;28;20060;-36
2024/02/27 05:40:06;;;;;;;25.77;16.67;;;3.70;99.90;;;;;;5041148;28;20692;-35
2024/02/27 05:42:31;;;;;;;29.80;17.67;;;3.70;99.90;;;;;;5040848;28;20040;-36
2024/02/27 05:44:57;;;;;;;27.20;17.40;;;3.70;99.90;;;;;;5041277;28;20029;-35
2024/02/27 05:47:22;;;;;;;30.73;19.27;;;3.70;99.90;;;;;;5040653;28;20033;-35
2024/02/27 05:49:48;;;;;;;29.17;17.73;;;3.60;99.90;;;;;;5041323;28;20031;-34
2024/02/27 05:52:13;;;;;;;28.42;18.08;;;3.70;99.90;;;;;;5041212;28;20399;-35
2024/02/27 05:54:39;;;;;;;28.50;17.20;;;3.60;99.90;;;;;;5040813;28;20464;-36
2024/02/27 05:57:05;;;;;;;31.63;18.48;;;3.70;99.90;;;;;;5041099;28;20025;-34
2024/02/27 05:59:31;;;;;;;26.40;16.55;;;3.70;99.90;;;;;;5041302;28;20028;-34
2024/02/27 06:01:57;;;;;;;25.25;15.52;;;3.60;99.90;;;;;;5040398;28;20033;-40
2024/02/27 06:04:22;;;;;;;23.00;15.75;;;3.60;99.90;;;;;;5040007;28;20767;-37
2024/02/27 06:06:48;;;;;;;26.10;16.63;;;3.60;99.90;;;;;;5039683;28;20021;-35
2024/02/27 06:09:14;;;;;;;25.20;17.25;;;3.70;99.90;;;;;;5040353;28;20021;-34
2024/02/27 06:11:42;;;;;;;23.95;15.55;;;3.60;99.90;;;;;;5039436;28;20060;-36
2024/02/27 06:14:07;;;;;;;25.05;15.15;;;3.70;99.90;;;;;;5038827;28;20571;-36
2024/02/27 06:16:33;;;;;;;21.90;15.23;;;3.70;99.90;;;;;;5040086;28;20052;-36
2024/02/27 06:18:59;;;;;;;21.17;14.05;;;3.70;99.90;;;;;;5040730;28;20067;-35
2024/02/27 06:24:09;;;;;;;21.45;13.80;;;3.60;99.90;;;;;;5040007;28;20040;-35
2024/02/27 06:26:34;;;;;;;20.05;12.88;;;3.60;99.90;;;;;;5040107;28;20024;-34
2024/02/27 06:29:00;;;;;;;19.27;12.60;;;3.60;99.90;;;;;;5039257;28;20013;-34
2024/02/27 06:31:26;;;;;;;21.00;13.82;;;3.60;99.90;;;;;;5039961;28;20094;-38
2024/02/27 06:33:52;;;;;;;20.50;13.15;;;3.70;99.90;;;;;;5039907;28;20025;-33
2024/02/27 06:36:17;;;;;;;21.63;13.70;;;3.60;99.90;;;;;;5039421;28;20035;-35
2024/02/27 06:38:43;;;;;;;21.40;14.40;;;3.70;99.90;;;;;;5039349;28;20020;-37
2024/02/27 06:41:09;;;;;;;21.25;13.63;;;3.60;99.90;;;;;;5040546;28;20035;-35
2024/02/27 06:43:34;;;;;;;20.35;12.77;;;3.70;99.90;;;;;;5039646;28;20431;-35
2024/02/27 06:46:00;;;;;;;18.92;13.27;;;3.70;99.90;;;;;;5041097;28;20476;-36
2024/02/27 06:48:28;;;;;;;19.98;13.23;;;3.70;99.90;;;;;;5040144;28;20499;-34
2024/02/27 06:50:54;;;;;;;20.00;13.05;;;3.70;99.90;;;;;;5040142;28;20040;-38
2024/02/27 06:53:24;;;;;;;17.77;12.10;;;3.70;99.90;;;;;;5039415;28;20670;-33
2024/02/27 06:55:50;;;;;;;22.30;14.82;;;3.70;99.90;;;;;;5040159;28;20040;-33
2024/02/27 06:58:16;;;;;;;26.83;16.85;;;3.70;99.90;;;;;;5039112;28;20025;-35
2024/02/27 07:00:42;;;;;;;26.20;16.73;;;3.70;99.90;;;;;;5039670;28;20035;-34
2024/02/27 07:03:07;;;;;;;21.75;14.32;;;3.70;99.90;;;;;;5039238;28;20025;-36
2024/02/27 07:05:34;;;;;;;23.13;15.55;;;3.70;99.90;;;;;;5040201;28;20459;-33
2024/02/27 07:08:00;;;;;;;23.58;14.25;;;3.80;99.90;;;;;;5040467;28;20029;-35
2024/02/27 07:10:25;;;;;;;23.55;14.75;;;3.80;99.90;;;;;;5039089;28;20373;-32
2024/02/27 07:12:51;;;;;;;23.05;15.77;;;3.80;99.90;;;;;;5039152;28;20053;-37
2024/02/27 07:15:17;;;;;;;21.95;14.50;;;3.80;99.90;;;;;;5038797;28;20032;-33
2024/02/27 07:17:42;;;;;;;18.75;12.68;;;3.80;99.90;;;;;;5039380;28;20035;-36
2024/02/27 07:20:09;;;;;;;22.80;14.02;;;3.80;99.90;;;;;;5039149;28;20029;-36
2024/02/27 07:22:35;;;;;;;26.77;16.70;;;3.80;99.90;;;;;;5039665;28;20060;-36
2024/02/27 07:25:01;;;;;;;22.15;14.82;;;3.80;99.90;;;;;;5039902;28;20133;-35
2024/02/27 07:27:26;;;;;;;19.85;12.98;;;3.80;99.90;;;;;;5039389;28;20115;-35
2024/02/27 07:29:52;;;;;;;32.03;17.77;;;3.80;99.90;;;;;;5039837;28;20214;-37
2024/02/27 07:32:17;;;;;;;21.90;14.75;;;3.80;99.90;;;;;;5038644;28;20045;-34
2024/02/27 07:34:43;;;;;;;25.85;16.00;;;3.80;99.90;;;;;;5039556;28;20025;-34
2024/02/27 07:37:13;;;;;;;29.40;17.10;;;3.80;99.90;;;;;;5039214;28;20025;-33
2024/02/27 07:39:39;;;;;;;25.15;16.10;;;3.80;99.90;;;;;;5039149;28;20056;-33
2024/02/27 07:42:05;;;;;;;25.25;15.73;;;3.80;99.90;;;;;;5039680;28;20017;-34
2024/02/27 07:44:30;;;;;;;24.10;15.80;;;3.80;99.90;;;;;;5039631;28;20033;-34
2024/02/27 07:46:56;;;;;;;23.92;15.32;;;3.80;99.90;;;;;;5038840;28;20032;-35
2024/02/27 07:49:22;;;;;;;25.33;15.80;;;3.80;99.90;;;;;;5038857;28;20036;-35
2024/02/27 07:51:48;;;;;;;23.98;14.88;;;3.80;99.90;;;;;;5038883;28;20044;-35
2024/02/27 07:54:16;;;;;;;18.13;13.07;;;3.80;99.90;;;;;;5038385;28;20817;-35
2024/02/27 07:56:43;;;;;;;21.13;14.20;;;3.80;99.90;;;;;;5042822;28;20146;-34
2024/02/27 07:59:10;;;;;;;20.27;13.27;;;3.80;99.90;;;;;;5042865;28;20035;-35
2024/02/27 08:01:35;;;;;;;22.65;14.93;;;3.80;99.90;;;;;;5042520;28;20111;-36
2024/02/27 08:04:03;;;;;;;20.88;13.98;;;3.90;99.90;;;;;;5042992;28;20017;-30
2024/02/27 08:06:30;;;;;;;20.88;12.27;;;3.90;99.90;;;;;;5041940;28;20690;-36
2024/02/27 08:08:56;;;;;;;22.77;14.48;;;3.90;99.90;;;;;;5043301;28;20933;-34
2024/02/27 08:11:22;;;;;;;21.50;14.15;;;4.00;99.90;;;;;;5042279;28;20033;-36
2024/02/27 08:13:48;;;;;;;21.17;14.48;;;4.00;99.90;;;;;;5042782;28;20045;-33
2024/02/27 08:16:13;;;;;;;24.70;13.68;;;4.00;99.90;;;;;;5043075;28;20546;-36
2024/02/27 08:18:39;;;;;;;20.30;13.27;;;4.00;99.90;;;;;;5042770;28;20025;-37
2024/02/27 08:21:05;;;;;;;20.90;12.90;;;4.00;99.90;;;;;;5041894;28;20017;-36
2024/02/27 08:23:30;;;;;;;20.08;12.80;;;4.00;99.90;;;;;;5042860;28;20025;-35
2024/02/27 08:25:57;;;;;;;23.35;14.00;;;4.10;99.90;;;;;;5042555;28;20135;-34
2024/02/27 08:28:23;;;;;;;22.08;14.05;;;4.10;99.90;;;;;;5041903;28;20514;-37
2024/02/27 08:30:49;;;;;;;24.75;16.25;;;4.20;99.90;;;;;;5042351;28;20029;-37
2024/02/27 08:33:14;;;;;;;23.23;14.50;;;4.10;99.90;;;;;;5041859;28;20029;-36
2024/02/27 08:35:40;;;;;;;19.42;12.93;;;4.20;99.90;;;;;;5041049;28;20021;-37
2024/02/27 08:38:06;;;;;;;18.00;11.88;;;4.20;99.90;;;;;;5041878;28;20263;-36
2024/02/27 08:40:32;;;;;;;19.50;13.05;;;4.20;99.90;;;;;;5041157;28;20021;-33
2024/02/27 08:42:58;;;;;;;20.65;13.85;;;4.20;99.90;;;;;;5040848;28;20025;-33
2024/02/27 08:45:24;;;;;;;21.40;15.13;;;4.20;99.90;;;;;;5041959;28;20104;-37
2024/02/27 08:47:50;;;;;;;19.10;13.88;;;4.20;99.90;;;;;;5042112;28;20120;-36
2024/02/27 08:50:16;;;;;;;20.90;14.20;;;4.20;99.90;;;;;;5041342;28;20033;-36
2024/02/27 08:52:42;;;;;;;23.13;15.23;;;4.20;99.90;;;;;;5042288;28;20028;-37
2024/02/27 08:55:08;;;;;;;24.98;16.27;;;4.20;99.90;;;;;;5041692;28;20037;-36
2024/02/27 08:57:34;;;;;;;23.73;14.68;;;4.20;99.90;;;;;;5041377;28;20021;-37
2024/02/27 09:00:01;;;;;;;23.85;15.80;;;4.20;99.90;;;;;;5043119;28;20032;-35
2024/02/27 09:02:27;;;;;;;20.58;13.50;;;4.30;99.90;;;;;;5042261;28;20029;-31
2024/02/27 09:04:52;;;;;;;20.73;13.52;;;4.30;99.90;;;;;;5041759;28;20037;-34
2024/02/27 09:07:18;;;;;;;18.67;13.88;;;4.30;99.90;;;;;;5041635;28;20028;-35
2024/02/27 09:09:44;;;;;;;18.70;12.35;;;4.30;99.90;;;;;;5041810;28;20025;-33
2024/02/27 09:12:10;;;;;;;20.17;13.23;;;4.30;99.90;;;;;;5041957;28;20515;-35
2024/02/27 09:14:37;;;;;;;21.00;14.40;;;4.40;99.90;;;;;;5042302;28;20079;-36
2024/02/27 09:17:03;;;;;;;18.83;12.60;;;4.50;99.90;;;;;;5040916;28;20127;-34
2024/02/27 09:19:29;;;;;;;16.85;12.55;;;4.50;99.90;;;;;;5040220;28;20025;-36
2024/02/27 09:21:55;;;;;;;17.00;12.10;;;4.60;99.90;;;;;;5041761;28;20029;-35
2024/02/27 09:24:20;;;;;;;20.33;13.77;;;4.70;99.90;;;;;;5039765;28;20033;-37
2024/02/27 09:26:46;;;;;;;17.98;12.38;;;4.70;99.90;;;;;;5041808;28;20113;-39
2024/02/27 09:29:12;;;;;;;24.25;14.48;;;4.80;99.90;;;;;;5040764;28;20029;-33
2024/02/27 09:31:38;;;;;;;21.60;14.75;;;4.80;99.90;;;;;;5040219;28;20521;-32
2024/02/27 09:34:03;;;;;;;25.52;15.75;;;4.80;99.90;;;;;;5040296;28;20025;-35
2024/02/27 09:36:29;;;;;;;21.48;14.40;;;4.80;99.90;;;;;;5040709;28;20021;-31
2024/02/27 09:38:54;;;;;;;19.08;13.85;;;4.90;99.90;;;;;;5038992;28;20131;-34
2024/02/27 09:41:54;;;;;;;19.17;13.95;;;5.00;99.90;;;;;;5039019;28;20021;-31
2024/02/27 09:44:19;;;;;;;17.63;12.60;;;5.10;99.90;;;;;;5039602;28;20060;-36
2024/02/27 09:46:47;;;;;;;17.55;12.57;;;5.10;99.90;;;;;;5038872;28;20203;-42
2024/02/27 09:49:14;;;;;;;16.70;12.65;;;5.20;99.90;;;;;;5038476;28;20110;-34
2024/02/27 09:51:43;;;;;;;18.60;13.20;;;5.20;99.90;;;;;;5039424;28;20048;-32
2024/02/27 09:54:10;;;;;;;19.13;13.52;;;5.30;99.90;;;;;;5040449;28;20032;-37
2024/02/27 09:56:37;;;;;;;16.15;12.18;;;5.30;99.90;;;;;;5040987;28;20124;-33
2024/02/27 09:59:03;;;;;;;16.38;10.98;;;5.30;99.90;;;;;;5038783;28;20785;-35
2024/02/27 10:01:31;;;;;;;22.63;13.93;;;5.40;99.90;;;;;;5040042;28;20468;-35
2024/02/27 10:03:59;;;;;;;16.77;11.88;;;5.50;99.90;;;;;;5040794;28;20121;-36
2024/02/27 10:06:27;;;;;;;18.52;13.63;;;5.60;99.90;;;;;;5039158;28;20044;-34
2024/02/27 10:08:54;;;;;;;19.73;13.85;;;5.70;99.90;;;;;;5040344;28;20237;-33
2024/02/27 10:11:23;;;;;;;19.38;13.57;;;5.60;99.90;;;;;;5039387;28;20769;-34
2024/02/27 10:13:49;;;;;;;18.63;12.80;;;5.50;99.90;;;;;;5040219;28;20055;-30
2024/02/27 10:16:28;;;;;;;16.95;11.77;;;5.50;99.90;;;;;;5039817;28;20064;-32
2024/02/27 10:18:54;;;;;;;19.23;14.18;;;5.50;99.90;;;;;;5039764;28;20464;-32
2024/02/27 10:21:20;;;;;;;19.88;14.15;;;5.50;99.90;;;;;;5039215;28;20032;-37
2024/02/27 10:23:46;;;;;;;20.25;14.38;;;5.50;99.90;;;;;;5040509;28;20036;-33
2024/02/27 10:26:12;;;;;;;21.45;14.75;;;5.50;99.90;;;;;;5039995;28;20029;-34
2024/02/27 10:28:38;;;;;;;18.05;13.25;;;5.50;99.90;;;;;;5039456;28;20086;-32
2024/02/27 10:31:07;;;;;;;18.65;12.75;;;5.50;99.90;;;;;;5039657;28;20047;-36
2024/02/27 10:33:32;;;;;;;14.85;11.52;;;5.50;99.90;;;;;;5040508;28;20021;-35
2024/02/27 10:35:58;;;;;;;16.52;11.85;;;5.50;99.90;;;;;;5040144;28;20467;-33
2024/02/27 10:38:25;;;;;;;15.93;11.48;;;5.60;99.90;;;;;;5039663;28;20139;-33
2024/02/27 10:40:50;;;;;;;14.98;10.48;;;5.70;99.90;;;;;;5039469;28;20056;-36
2024/02/27 10:43:16;;;;;;;12.65;9.52;;;5.70;99.90;;;;;;5038625;28;20112;-34
2024/02/27 10:45:42;;;;;;;11.15;8.63;;;5.80;99.90;;;;;;5039123;28;20055;-36
2024/02/27 10:48:09;;;;;;;12.98;9.30;;;5.90;99.90;;;;;;5038732;28;20069;-32
2024/02/27 10:50:35;;;;;;;15.13;11.25;;;6.00;99.90;;;;;;5038925;28;20466;-35
2024/02/27 10:53:04;;;;;;;17.60;11.93;;;6.20;99.90;;;;;;5039301;28;20021;-35
2024/02/27 10:55:30;;;;;;;16.40;12.50;;;6.30;99.90;;;;;;5038561;28;20084;-36
2024/02/27 10:57:59;;;;;;;15.85;12.00;;;6.30;99.90;;;;;;5040033;28;20055;-33
2024/02/27 11:00:26;;;;;;;15.18;12.35;;;6.30;99.90;;;;;;5039725;28;20036;-33
2024/02/27 11:02:56;;;;;;;19.08;13.38;;;6.30;99.90;;;;;;5038957;28;20023;-34
2024/02/27 11:05:26;;;;;;;18.02;13.02;;;6.30;99.90;;;;;;5039968;28;20111;-35
2024/02/27 11:07:54;;;;;;;15.45;12.25;;;6.30;99.90;;;;;;5039456;28;20095;-37
2024/02/27 11:10:22;;;;;;;16.42;12.98;;;6.20;99.90;;;;;;5038636;28;20037;-35
2024/02/27 11:12:53;;;;;;;14.27;11.63;;;6.20;99.90;;;;;;5039312;28;20052;-31
2024/02/27 11:15:21;;;;;;;16.63;12.10;;;6.20;99.90;;;;;;5039801;28;20033;-35
2024/02/27 11:17:53;;;;;;;16.17;12.48;;;6.30;99.90;;;;;;5039020;28;20471;-34
2024/02/27 11:20:20;;;;;;;16.73;12.00;;;6.40;99.90;;;;;;5039544;28;20033;-33
2024/02/27 11:22:46;;;;;;;14.23;10.77;;;6.40;99.90;;;;;;5039467;28;20021;-33
2024/02/27 11:25:21;;;;;;;16.52;12.65;;;6.50;99.90;;;;;;5038831;28;20491;-34
2024/02/27 11:27:49;;;;;;;15.40;12.13;;;6.40;99.90;;;;;;5039614;28;20029;-34
2024/02/27 11:30:19;;;;;;;16.73;13.23;;;6.40;99.90;;;;;;5042480;28;20563;-33
2024/02/27 11:32:45;;;;;;;16.50;13.35;;;6.40;99.90;;;;;;5043595;28;20327;-35
2024/02/27 11:35:11;;;;;;;16.67;13.13;;;6.40;99.90;;;;;;5043164;28;20503;-34
2024/02/27 11:37:36;;;;;;;16.52;12.38;;;6.40;99.90;;;;;;5041971;28;20009;-33
2024/02/27 11:40:06;;;;;;;16.50;12.20;;;6.40;99.90;;;;;;5043461;28;20545;-32
2024/02/27 11:42:39;;;;;;;16.90;12.73;;;6.40;99.90;;;;;;5042186;28;20029;-31
2024/02/27 11:45:12;;;;;;;16.60;12.02;;;6.40;99.90;;;;;;5041608;28;20060;-37
2024/02/27 11:47:53;;;;;;;15.60;12.63;;;6.30;99.90;;;;;;5042896;28;20048;-30
2024/02/27 11:50:36;;;;;;;14.25;10.88;;;6.30;99.90;;;;;;5033571;28;20404;-37
2024/02/27 11:53:20;;;;;;;13.45;10.95;;;6.30;99.90;;;;;;5042726;28;20099;-33
2024/02/27 11:55:47;;;;;;;14.57;11.70;;;6.30;99.90;;;;;;5043141;28;20029;-33
2024/02/27 11:58:13;;;;;;;15.80;12.05;;;6.30;99.90;;;;;;5042878;28;20024;-36
2024/02/27 12:00:38;;;;;;;15.90;11.82;;;6.30;99.90;;;;;;5042530;28;20085;-32
2024/02/27 12:03:07;;;;;;;15.18;11.32;;;6.30;99.90;;;;;;5042405;28;20121;-35
2024/02/27 12:05:33;;;;;;;13.80;11.00;;;6.30;99.90;;;;;;5041629;28;20471;-34
2024/02/27 12:07:59;;;;;;;16.33;11.90;;;6.40;99.90;;;;;;5042418;28;20029;-34
2024/02/27 12:10:25;;;;;;;14.93;12.57;;;6.40;99.90;;;;;;5042102;28;20053;-34
2024/02/27 12:12:51;;;;;;;15.75;12.45;;;6.50;99.90;;;;;;5041996;28;20045;-35
2024/02/27 12:15:20;;;;;;;14.07;11.93;;;6.50;99.90;;;;;;5043156;28;20055;-35
2024/02/27 12:17:46;;;;;;;13.70;11.30;;;6.50;99.90;;;;;;5043778;28;20025;-36
2024/02/27 12:20:13;;;;;;;14.80;12.27;;;6.60;99.90;;;;;;5042046;28;20043;-36
2024/02/27 12:22:45;;;;;;;15.85;11.10;;;6.60;99.90;;;;;;5043637;28;20021;-34
2024/02/27 12:25:10;;;;;;;15.48;12.30;;;6.70;99.90;;;;;;5042191;28;20056;-38
2024/02/27 12:27:37;;;;;;;14.60;11.55;;;6.70;99.90;;;;;;5041956;28;20558;-37
2024/02/27 12:30:08;;;;;;;13.55;11.05;;;6.80;99.90;;;;;;5042784;28;20033;-37
2024/02/27 12:32:34;;;;;;;14.57;10.93;;;6.80;99.90;;;;;;5042085;28;20469;-36
2024/02/27 12:35:06;;;;;;;12.48;10.93;;;6.80;99.90;;;;;;5041921;28;20103;-34
2024/02/27 12:37:50;;;;;;;13.75;10.02;;;6.90;99.90;;;;;;5042928;28;20029;-36